Date,TemperatureHighF,TemperatureAvgF,TemperatureLowF,DewpointHighF,DewpointAvgF,DewpointLowF,HumidityHigh,HumidityAvg,HumidityLow,PressureMaxIn,PressureMinIn,WindSpeedMaxMPH,WindSpeedAvgMPH,GustSpeedMaxMPH,PrecipitationSumIn
2013-3-1,30,21,13,23,18,10,93,89,74,0.00,40.00,15,5,30,0.00
2013-3-2,39,28,21,25,20,10,93,75,47,0.00,40.00,14,7,32,0.00
2013-3-3,26,22,8,23,18,3,93,86,76,0.00,40.00,28,16,50,0.00
2013-3-4,14,6,2,3,-1,-11,85,73,52,0.00,40.00,20,8,31,0.00
2013-3-5,28,14,2,9,-1,-9,73,52,35,0.00,40.00,16,6,27,0.00
2013-3-6,29,22,14,21,12,3,92,67,45,0.00,40.00,31,15,99,0.00
2013-3-7,26,17,10,17,9,2,92,71,38,0.00,40.00,17,9,31,0.00
2013-3-8,31,22,19,23,18,13,93,83,67,0.00,40.00,18,9,23,0.00
2013-3-9,28,20,15,14,8,-2,81,61,35,0.00,40.00,14,9,29,0.00
2013-3-10,29,20,13,12,4,-4,77,51,38,0.00,40.00,18,8,32,0.00
2013-3-11,24,19,16,18,10,2,90,70,53,0.00,40.00,30,15,46,0.00
2013-3-12,31,20,13,23,11,-1,94,68,53,0.00,40.00,17,7,42,0.00
2013-3-13,40,31,24,25,22,18,93,72,51,0.00,40.00,17,8,42,0.00
2013-3-14,46,36,30,21,18,10,65,49,34,0.00,40.00,13,5,29,0.00
2013-3-15,38,34,28,21,17,12,70,50,40,0.00,40.00,23,15,44,0.00
2013-3-16,34,27,23,20,15,9,85,62,44,0.00,40.00,18,10,36,0.00
2013-3-17,25,13,7,20,8,0,93,81,60,0.00,40.00,38,19,66,0.00
2013-3-18,15,10,4,11,5,-1,87,81,70,0.00,40.00,17,9,45,0.00
2013-3-19,26,14,6,6,-2,-11,83,52,20,0.00,40.00,27,9,39,0.00
2013-3-20,30,22,15,24,11,-12,90,67,24,0.00,40.00,18,11,36,0.00
2013-3-21,26,16,7,24,13,3,94,87,82,0.00,40.00,24,12,57,0.00
2013-3-22,14,7,2,8,2,-4,86,81,74,0.00,40.00,11,4,23,0.00
2013-3-23,13,5,0,5,-2,-7,80,72,56,0.00,40.00,18,6,32,0.00
2013-3-24,15,5,-1,4,-4,-9,82,69,39,0.00,40.00,16,5,23,0.00
2013-3-25,23,11,2,5,-3,-9,70,53,35,0.00,40.00,11,4,17,0.00
2013-3-26,32,20,12,23,14,2,93,78,63,0.00,40.00,12,4,21,0.00
2013-3-27,34,25,20,23,19,15,94,80,59,0.00,40.00,11,5,22,0.00
2013-3-28,42,31,23,23,20,15,79,63,46,0.00,40.00,10,5,18,0.00
2013-3-29,37,31,28,27,24,20,95,77,57,0.00,40.00,16,9,62,0.00
2013-3-30,37,29,25,26,19,-100,94,70,38,0.00,40.00,18,9,32,0.00
2013-3-31,43,33,25,20,16,11,74,52,33,0.00,40.00,15,7,22,0.00